Time;durP1;ratioP1;P1;durP2;ratioP2;P2;SDS_P1;SDS_P2;PMS_P1;PMS_P2;Temp;Humidity;BMP_temperature;BMP_pressure;BME280_temperature;BME280_humidity;BME280_pressure;Samples;Min_cycle;Max_cycle;Signal;HPM_P1;HPM_P2
2022/03/08 05:17:03;;;;;;;30.10;15.27;;;;;;;-3.97;76.67;100888.06;5562237;32;174671;-91
2022/03/08 05:20:07;;;;;;;36.85;17.15;;;;;;;-4.02;76.92;100888.84;5553232;32;35028;-93
2022/03/08 05:23:10;;;;;;;33.17;16.75;;;;;;;-3.89;77.05;100888.19;5546560;32;34769;-92
2022/03/08 05:26:13;;;;;;;35.78;17.00;;;;;;;-3.86;76.92;100890.87;5547394;32;34251;-88
2022/03/08 05:29:16;;;;;;;39.10;19.33;;;;;;;-3.62;76.38;100892.13;5545616;32;32715;-87
2022/03/08 05:32:19;;;;;;;42.65;19.50;;;;;;;-3.53;75.76;100896.59;5545712;32;34083;-87
2022/03/08 05:35:22;;;;;;;38.85;17.77;;;;;;;-3.68;76.18;100899.78;5546156;32;33946;-86
2022/03/08 05:38:25;;;;;;;33.38;16.95;;;;;;;-3.76;76.90;100899.69;5546426;32;33858;-86
2022/03/08 05:41:28;;;;;;;35.65;16.83;;;;;;;-3.68;76.72;100907.56;5546272;32;33826;-86
2022/03/08 05:44:31;;;;;;;31.20;16.30;;;;;;;-3.57;75.84;100903.44;5546814;32;34022;-87
2022/03/08 05:47:35;;;;;;;28.92;16.08;;;;;;;-3.44;75.47;100904.53;5546389;32;33546;-86
2022/03/08 05:50:39;;;;;;;32.45;16.77;;;;;;;-3.32;74.51;100908.19;5545458;32;34324;-87
2022/03/08 05:53:41;;;;;;;34.38;17.10;;;;;;;-3.22;74.24;100907.47;5545592;32;34033;-86
2022/03/08 05:56:44;;;;;;;33.03;17.85;;;;;;;-3.14;74.23;100911.06;5545695;32;33810;-86
2022/03/08 05:59:49;;;;;;;33.30;16.92;;;;;;;-3.05;74.05;100905.16;5546478;32;34352;-86
2022/03/08 06:02:52;;;;;;;34.65;18.30;;;;;;;-2.99;73.76;100907.84;5546645;32;34117;-86
2022/03/08 06:05:55;;;;;;;32.67;17.27;;;;;;;-2.91;73.28;100907.91;5546420;32;34227;-87
2022/03/08 06:08:59;;;;;;;33.30;17.50;;;;;;;-2.87;73.40;100914.91;5545636;32;33594;-86
2022/03/08 06:12:03;;;;;;;33.17;17.50;;;;;;;-2.77;72.97;100915.06;5545985;32;34540;-86
2022/03/08 06:15:06;;;;;;;32.00;17.48;;;;;;;-2.77;72.79;100910.72;5545956;32;33678;-87
2022/03/08 06:18:10;;;;;;;33.40;18.23;;;;;;;-2.76;72.98;100915.06;5545136;32;34348;-86
2022/03/08 06:21:12;;;;;;;34.63;18.27;;;;;;;-2.68;72.93;100919.50;5545609;32;34038;-87
2022/03/08 06:24:15;;;;;;;35.85;18.48;;;;;;;-2.59;72.76;100930.91;5565108;32;33955;-86
2022/03/08 06:27:18;;;;;;;36.88;18.25;;;;;;;-2.40;72.34;100932.84;5556276;32;34557;-86
2022/03/08 06:30:21;;;;;;;33.58;17.50;;;;;;;-2.20;71.56;100938.31;5551628;32;33880;-85
2022/03/08 06:33:24;;;;;;;32.60;16.55;;;;;;;-1.87;70.37;100934.31;5553595;32;35196;-84
2022/03/08 06:36:27;;;;;;;37.10;17.95;;;;;;;-1.86;69.93;100935.22;5553941;32;33742;-85
2022/03/08 06:39:30;;;;;;;29.77;17.05;;;;;;;-1.70;69.47;100931.03;5553204;32;34970;-85
2022/03/08 06:42:34;;;;;;;30.40;17.15;;;;;;;-1.45;68.29;100933.88;5549089;32;33889;-85
2022/03/08 06:45:37;;;;;;;33.85;17.45;;;;;;;-1.22;67.73;100928.84;5537000;32;34530;-85
2022/03/08 06:48:40;;;;;;;32.85;17.37;;;;;;;-0.88;66.56;100936.91;5539145;32;34431;-85
2022/03/08 06:51:42;;;;;;;29.87;17.98;;;;;;;-0.90;66.66;100945.59;5550858;32;33889;-85
2022/03/08 06:54:49;;;;;;;32.25;17.02;;;;;;;-0.70;66.26;100940.50;5538670;32;34719;-85
2022/03/08 06:57:52;;;;;;;32.70;18.10;;;;;;;-0.54;65.76;100946.69;5545238;32;34102;-86
2022/03/08 07:00:55;;;;;;;38.47;20.05;;;;;;;-0.11;65.42;100945.13;5549716;32;34008;-85
2022/03/08 07:04:01;;;;;;;37.17;20.30;;;;;;;0.28;66.32;100950.44;5550731;32;33846;-85
2022/03/08 07:07:04;;;;;;;40.03;21.08;;;;;;;0.01;67.88;100949.50;5534982;32;33949;-85
2022/03/08 07:10:08;;;;;;;37.60;20.58;;;;;;;-0.03;67.84;100957.34;5534216;32;34620;-85
2022/03/08 07:13:11;;;;;;;40.90;20.95;;;;;;;0.05;67.51;100952.13;5533930;32;35280;-86
2022/03/08 07:16:14;;;;;;;42.20;21.10;;;;;;;-0.08;68.40;100947.72;5537018;32;34494;-86
2022/03/08 07:19:18;;;;;;;38.50;19.65;;;;;;;0.44;66.10;100944.38;5541789;32;33890;-86
2022/03/08 07:22:21;;;;;;;34.70;19.55;;;;;;;1.61;60.86;100954.75;5542462;32;34025;-86
2022/03/08 07:25:24;;;;;;;37.72;19.58;;;;;;;4.32;52.30;100947.12;5553594;32;33898;-86
2022/03/08 07:28:27;;;;;;;34.63;19.58;;;;;;;5.84;47.89;100946.22;5552016;32;33810;-85
2022/03/08 07:31:35;;;;;;;32.55;18.92;;;;;;;5.40;46.48;100947.09;5551925;32;34199;-89
2022/03/08 07:34:38;;;;;;;37.55;19.83;;;;;;;7.48;40.95;100945.87;5555356;32;34219;-90
2022/03/08 07:37:41;;;;;;;29.02;18.80;;;;;;;7.73;39.24;100939.91;5562145;32;33976;-90
2022/03/08 07:40:44;;;;;;;31.20;19.37;;;;;;;7.37;40.02;100943.53;5583525;32;35153;-85
2022/03/08 07:43:47;;;;;;;33.75;21.17;;;;;;;10.58;36.09;100940.81;5571300;31;33753;-85
2022/03/08 07:46:49;;;;;;;28.87;19.65;;;;;;;14.74;29.12;100935.69;5557688;32;34884;-86
2022/03/08 07:49:52;;;;;;;29.05;19.95;;;;;;;14.31;26.85;100934.53;5561181;32;35248;-84
2022/03/08 07:52:56;;;;;;;26.95;19.62;;;;;;;15.44;26.26;100936.94;5564509;32;34445;-85
2022/03/08 07:55:59;;;;;;;29.08;20.25;;;;;;;15.03;25.54;100935.81;5577854;32;34210;-85
2022/03/08 07:59:02;;;;;;;26.80;19.92;;;;;;;13.33;28.48;100935.28;5579119;32;34134;-85
2022/03/08 08:02:05;;;;;;;26.83;19.05;;;;;;;13.50;28.03;100936.25;5571516;32;33926;-85
2022/03/08 08:05:09;;;;;;;25.50;19.15;;;;;;;15.26;25.44;100926.41;5571669;32;34588;-85
2022/03/08 08:08:14;;;;;;;24.10;17.23;;;;;;;16.39;24.00;100920.31;5556999;32;33732;-85
2022/03/08 08:11:17;;;;;;;21.85;14.55;;;;;;;15.70;24.28;100929.94;5550224;32;34431;-85
2022/03/08 08:14:20;;;;;;;22.40;16.30;;;;;;;16.78;22.70;100923.97;5543058;32;33779;-85
2022/03/08 08:17:26;;;;;;;19.95;14.55;;;;;;;17.28;22.50;100925.13;5531921;32;34259;-84
2022/03/08 08:20:29;;;;;;;21.58;15.20;;;;;;;19.58;19.12;100916.34;5531924;32;34399;-84
2022/03/08 08:23:32;;;;;;;18.08;14.98;;;;;;;21.06;18.81;100922.34;5539611;32;35305;-83
2022/03/08 08:26:35;;;;;;;19.95;15.40;;;;;;;23.93;16.27;100908.91;5572545;32;33979;-83
2022/03/08 08:29:38;;;;;;;18.12;13.65;;;;;;;23.06;16.19;100922.59;5573681;32;34286;-83
2022/03/08 08:32:43;;;;;;;16.65;13.93;;;;;;;18.88;18.94;100916.31;5579144;32;33827;-84
2022/03/08 08:35:48;;;;;;;17.12;14.02;;;;;;;15.69;22.58;100922.88;5561878;32;35257;-83
2022/03/08 08:38:50;;;;;;;18.08;14.38;;;;;;;15.80;22.78;100911.53;5573402;32;33948;-84
2022/03/08 08:41:53;;;;;;;18.00;13.98;;;;;;;16.75;21.64;100912.59;5576296;32;34077;-84
2022/03/08 08:44:56;;;;;;;19.62;14.57;;;;;;;18.83;20.57;100903.25;5573622;32;33208;-84
2022/03/08 08:47:59;;;;;;;17.95;13.93;;;;;;;19.83;19.04;100900.03;5572587;32;34320;-84
2022/03/08 08:51:02;;;;;;;18.80;14.02;;;;;;;17.41;21.57;100909.03;5574113;32;33869;-84
2022/03/08 08:54:06;;;;;;;22.27;14.95;;;;;;;17.99;20.64;100905.81;5574792;32;33925;-84
2022/03/08 08:57:08;;;;;;;20.15;14.57;;;;;;;17.99;21.01;100908.50;5561036;32;34400;-84
2022/03/08 09:00:12;;;;;;;20.92;13.32;;;;;;;16.69;22.86;100904.00;5562260;32;34177;-84
2022/03/08 09:03:16;;;;;;;20.17;13.90;;;;;;;16.86;22.29;100912.72;5537421;32;34735;-84
2022/03/08 09:06:26;;;;;;;20.98;14.10;;;;;;;15.01;24.48;100905.63;5533210;32;34603;-84
2022/03/08 09:09:29;;;;;;;18.00;12.48;;;;;;;11.89;28.80;100905.94;5534218;32;34380;-84
2022/03/08 09:12:33;;;;;;;18.20;13.23;;;;;;;12.39;27.76;100904.47;5554817;32;34871;-83
2022/03/08 09:15:35;;;;;;;19.87;14.32;;;;;;;9.94;31.55;100910.56;5557426;32;34014;-83
2022/03/08 09:18:39;;;;;;;20.95;13.95;;;;;;;10.08;31.98;100902.97;5550657;32;33987;-84
2022/03/08 09:21:41;;;;;;;24.25;13.77;;;;;;;9.65;32.72;100902.81;5537373;32;34213;-85
2022/03/08 09:24:44;;;;;;;18.40;13.23;;;;;;;9.51;33.14;100913.91;5537158;32;33942;-84
2022/03/08 09:27:47;;;;;;;22.70;12.23;;;;;;;9.54;32.93;100916.47;5536721;32;33805;-84
2022/03/08 09:30:50;;;;;;;18.67;12.90;;;;;;;10.31;32.11;100908.28;5537373;32;34061;-85
2022/03/08 09:33:53;;;;;;;16.98;12.98;;;;;;;9.82;32.47;100907.47;5538607;32;34939;-85
2022/03/08 09:36:56;;;;;;;21.30;12.98;;;;;;;9.57;33.12;100896.94;5548169;32;33953;-84
2022/03/08 09:39:59;;;;;;;20.17;12.20;;;;;;;9.03;34.10;100910.31;5551259;32;33769;-83
2022/03/08 09:43:02;;;;;;;18.15;12.35;;;;;;;10.37;33.07;100902.72;5545754;32;34345;-87
2022/03/08 09:46:06;;;;;;;19.70;12.80;;;;;;;10.07;32.28;100906.50;5551577;32;34273;-88
2022/03/08 09:49:09;;;;;;;20.23;12.02;;;;;;;10.12;32.43;100901.06;5544762;32;35426;-88
2022/03/08 09:52:12;;;;;;;18.48;12.95;;;;;;;9.39;33.56;100899.34;5553864;32;34243;-89
2022/03/08 09:55:17;;;;;;;16.92;12.23;;;;;;;9.48;33.42;100891.97;5549402;32;34000;-84
2022/03/08 09:58:20;;;;;;;18.45;11.50;;;;;;;10.05;33.11;100895.13;5537156;32;33667;-83
2022/03/08 10:01:24;;;;;;;23.35;11.88;;;;;;;11.08;32.68;100896.28;5535689;32;34075;-85
2022/03/08 10:04:27;;;;;;;15.82;10.95;;;;;;;11.77;31.19;100896.75;5555058;32;33446;-84
2022/03/08 10:08:11;;;;;;;15.57;11.18;;;;;;;11.97;31.55;100897.63;5557606;32;34948;-85
2022/03/08 10:11:16;;;;;;;15.70;10.73;;;;;;;11.56;31.67;100899.47;5556321;32;34403;-84
2022/03/08 10:14:35;;;;;;;17.30;11.27;;;;;;;12.13;29.11;100895.97;5554072;32;33822;-84
2022/03/08 10:17:40;;;;;;;17.73;10.88;;;;;;;12.48;29.02;100903.16;5542126;32;34203;-85
2022/03/08 10:20:43;;;;;;;18.17;10.45;;;;;;;12.04;29.21;100895.56;5541435;32;35227;-84
2022/03/08 10:23:46;;;;;;;15.82;11.10;;;;;;;12.61;29.49;100897.22;5555087;32;34052;-84
2022/03/08 10:26:57;;;;;;;27.20;12.20;;;;;;;13.48;28.52;100895.50;5542355;32;34190;-84
2022/03/08 10:30:00;;;;;;;28.65;13.25;;;;;;;14.09;27.93;100892.19;5541478;32;34945;-85
2022/03/08 10:33:07;;;;;;;20.45;12.23;;;;;;;14.42;26.88;100886.75;5540460;32;33997;-85
2022/03/08 10:36:21;;;;;;;17.92;12.00;;;;;;;13.77;27.41;100887.69;5538507;32;34013;-84
2022/03/08 10:39:24;;;;;;;15.35;10.05;;;;;;;13.26;26.02;100885.94;5554687;32;33987;-85
2022/03/08 10:42:30;;;;;;;14.07;10.07;;;;;;;13.01;27.09;100884.56;5543751;32;33938;-85
2022/03/08 10:45:35;;;;;;;16.23;10.93;;;;;;;13.41;26.92;100886.94;5542138;32;34401;-85
2022/03/08 10:48:38;;;;;;;15.15;10.27;;;;;;;13.07;26.72;100878.03;5536730;32;34045;-85
2022/03/08 10:51:43;;;;;;;14.82;10.02;;;;;;;15.79;24.13;100869.66;5536849;32;34192;-84
2022/03/08 10:54:46;;;;;;;15.10;10.13;;;;;;;19.23;19.74;100874.25;5554438;32;34326;-86
2022/03/08 10:57:56;;;;;;;15.30;9.77;;;;;;;18.33;19.62;100868.47;5551329;32;33535;-88
2022/03/08 11:00:59;;;;;;;13.20;9.07;;;;;;;16.41;21.07;100867.50;5567229;32;34150;-84
2022/03/08 11:04:22;;;;;;;13.05;9.30;;;;;;;12.43;25.43;100881.28;5555196;32;34315;-84
2022/03/08 11:07:29;;;;;;;16.75;9.73;;;;;;;11.95;25.84;100875.53;5539511;32;34186;-83
2022/03/08 11:10:36;;;;;;;10.48;8.02;;;;;;;11.94;26.26;100871.16;5536737;32;34769;-84
2022/03/08 11:13:42;;;;;;;10.68;8.60;;;;;;;13.28;26.45;100875.22;5538859;32;34104;-83
2022/03/08 11:16:50;;;;;;;11.75;7.53;;;;;;;14.56;23.10;100863.72;5544973;32;34844;-83
2022/03/08 11:19:56;;;;;;;8.18;7.28;;;;;;;17.18;19.35;100858.75;5551275;32;34053;-83
2022/03/08 11:22:59;;;;;;;11.68;6.70;;;;;;;19.01;17.16;100854.37;5556174;32;35314;-83
2022/03/08 11:26:02;;;;;;;7.22;6.28;;;;;;;18.01;17.59;100853.75;5547828;32;35317;-84
2022/03/08 11:29:05;;;;;;;10.40;6.85;;;;;;;14.68;19.69;100848.75;5546864;32;34338;-83
2022/03/08 11:32:17;;;;;;;8.35;6.32;;;;;;;12.87;22.50;100855.13;5557364;32;34154;-83
2022/03/08 11:35:37;;;;;;;11.00;6.72;;;;;;;12.88;22.84;100855.03;5551360;32;34061;-84
2022/03/08 11:38:40;;;;;;;8.77;6.75;;;;;;;11.02;24.67;100846.94;5541250;32;34295;-84
2022/03/08 11:41:46;;;;;;;9.43;6.80;;;;;;;11.65;25.22;100842.38;5547973;32;34026;-84
2022/03/08 11:45:04;;;;;;;9.95;6.62;;;;;;;11.81;23.58;100845.16;5548915;32;33760;-87
2022/03/08 11:48:09;;;;;;;9.40;6.85;;;;;;;12.43;24.22;100843.16;5546598;32;34649;-85
2022/03/08 11:51:12;;;;;;;8.93;6.12;;;;;;;12.40;24.73;100836.19;5549858;32;34577;-85
2022/03/08 11:54:27;;;;;;;8.48;6.32;;;;;;;12.17;25.43;100832.84;5541689;32;35294;-85
2022/03/08 11:57:51;;;;;;;7.75;6.37;;;;;;;12.82;27.53;100827.88;5549123;32;33932;-84
2022/03/08 12:01:00;;;;;;;9.50;5.97;;;;;;;12.87;22.40;100824.03;5546227;32;34662;-84
2022/03/08 12:04:11;;;;;;;8.40;6.78;;;;;;;11.79;23.51;100814.28;5554434;32;34544;-84
2022/03/08 12:07:26;;;;;;;8.70;6.75;;;;;;;10.83;25.09;100820.37;5547879;32;34973;-84
2022/03/08 12:10:29;;;;;;;8.30;6.45;;;;;;;10.95;25.01;100818.12;5537720;32;33852;-84
2022/03/08 12:13:57;;;;;;;9.02;7.10;;;;;;;10.97;24.41;100814.44;5539322;32;33816;-85
2022/03/08 12:17:18;;;;;;;8.80;7.00;;;;;;;11.06;24.57;100799.87;5544192;32;34237;-82
2022/03/08 12:20:21;;;;;;;9.15;6.93;;;;;;;9.93;26.38;100810.78;5538184;32;35285;-82
2022/03/08 12:23:24;;;;;;;8.80;6.28;;;;;;;10.68;25.54;100800.66;5536725;32;34195;-83
2022/03/08 12:26:53;;;;;;;8.82;5.97;;;;;;;10.88;25.44;100797.16;5549635;32;34339;-83
2022/03/08 12:30:16;;;;;;;7.47;5.87;;;;;;;11.25;24.65;100802.56;5547441;32;34253;-83
2022/03/08 12:33:19;;;;;;;8.45;6.18;;;;;;;11.61;23.93;100800.94;5537081;32;34298;-84
2022/03/08 12:36:21;;;;;;;8.88;6.30;;;;;;;10.35;24.67;100809.97;5552195;32;33979;-83
2022/03/08 12:40:02;;;;;;;8.07;6.15;;;;;;;10.53;25.05;100802.19;5548876;32;34348;-86
2022/03/08 12:43:11;;;;;;;10.57;6.20;;;;;;;9.79;25.74;100798.97;5537951;32;34361;-83
2022/03/08 12:46:18;;;;;;;7.25;5.90;;;;;;;10.39;25.29;100786.81;5542650;32;33628;-82
2022/03/08 12:49:22;;;;;;;8.38;6.37;;;;;;;10.48;25.25;100775.00;5528854;32;35318;-83
2022/03/08 12:52:26;;;;;;;7.72;5.80;;;;;;;10.32;25.20;100777.41;5557906;32;34079;-83
2022/03/08 12:55:38;;;;;;;9.13;6.15;;;;;;;9.52;26.39;100780.59;5552292;32;33777;-83
2022/03/08 12:58:41;;;;;;;8.65;5.55;;;;;;;9.13;26.93;100773.22;5550233;32;34272;-83
2022/03/08 13:01:44;;;;;;;11.32;6.15;;;;;;;9.12;27.39;100771.50;5557871;32;35106;-82
2022/03/08 13:04:48;;;;;;;10.55;6.80;;;;;;;8.66;27.79;100780.22;5556327;32;33983;-84
2022/03/08 13:07:53;;;;;;;10.45;5.70;;;;;;;8.55;28.57;100777.06;5547621;32;33715;-84
2022/03/08 13:11:04;;;;;;;10.35;6.80;;;;;;;8.79;28.36;100774.47;5547478;32;33222;-84
2022/03/08 13:14:21;;;;;;;9.48;6.55;;;;;;;8.73;27.94;100779.06;5563373;32;34464;-82
2022/03/08 13:17:30;;;;;;;9.02;6.07;;;;;;;8.39;28.09;100782.00;5557400;32;34062;-83
2022/03/08 13:20:39;;;;;;;10.45;6.68;;;;;;;8.38;28.13;100777.59;5551374;32;33714;-83
2022/03/08 13:23:45;;;;;;;9.40;6.37;;;;;;;8.54;28.25;100776.19;5550375;32;34284;-82
2022/03/08 13:27:00;;;;;;;8.25;5.87;;;;;;;8.99;27.28;100769.31;5553766;32;34026;-83
2022/03/08 13:30:20;;;;;;;8.68;5.93;;;;;;;8.86;27.58;100765.41;5549932;32;34290;-82
2022/03/08 13:33:26;;;;;;;10.43;6.47;;;;;;;9.01;27.03;100759.53;5547192;32;34074;-87
2022/03/08 13:36:30;;;;;;;8.32;6.03;;;;;;;8.81;27.64;100762.94;5561264;32;34004;-82
2022/03/08 13:39:44;;;;;;;10.07;5.70;;;;;;;8.72;27.86;100760.59;5548251;32;34676;-83
2022/03/08 13:42:47;;;;;;;10.27;6.85;;;;;;;8.95;27.53;100758.91;5555395;32;34598;-82
2022/03/08 13:46:22;;;;;;;9.65;6.60;;;;;;;8.81;27.63;100764.69;5557332;32;34098;-83
2022/03/08 13:49:26;;;;;;;8.80;6.40;;;;;;;8.89;27.74;100765.28;5559203;32;34831;-83
2022/03/08 13:52:29;;;;;;;7.85;6.20;;;;;;;8.81;27.60;100764.69;5553295;32;33953;-82
2022/03/08 13:55:33;;;;;;;8.05;5.93;;;;;;;9.03;27.33;100749.78;5552104;32;34192;-83
2022/03/08 13:58:51;;;;;;;9.27;6.65;;;;;;;8.83;28.09;100755.78;5545421;32;33724;-82
2022/03/08 14:02:07;;;;;;;9.15;6.65;;;;;;;8.42;28.59;100760.72;5556861;32;34121;-82
2022/03/08 14:05:11;;;;;;;10.18;6.60;;;;;;;8.43;29.33;100757.16;5563011;32;34346;-82
2022/03/08 14:08:23;;;;;;;9.25;6.47;;;;;;;8.14;28.83;100757.25;5563973;32;34558;-83
2022/03/08 14:11:27;;;;;;;11.02;5.95;;;;;;;7.66;29.55;100749.06;5553468;32;34018;-83
2022/03/08 14:14:31;;;;;;;10.68;5.93;;;;;;;7.78;29.56;100752.25;5550715;32;35401;-81
2022/03/08 14:17:34;;;;;;;9.60;6.20;;;;;;;8.44;28.78;100743.91;5549688;32;34838;-82
2022/03/08 14:20:41;;;;;;;9.48;5.70;;;;;;;7.97;28.64;100747.25;5547841;32;34312;-81
2022/03/08 14:23:44;;;;;;;9.68;6.57;;;;;;;8.36;28.46;100741.50;5538545;32;33869;-81
2022/03/08 14:27:06;;;;;;;10.65;6.87;;;;;;;8.68;28.09;100735.16;5543476;32;34058;-82
2022/03/08 14:30:09;;;;;;;9.02;6.37;;;;;;;8.94;28.00;100736.03;5546997;32;34384;-87
2022/03/08 14:33:12;;;;;;;7.50;5.82;;;;;;;8.18;28.56;100750.06;5553069;32;33684;-87
2022/03/08 14:36:37;;;;;;;7.25;5.45;;;;;;;7.88;28.15;100752.81;5547641;32;34942;-82
2022/03/08 14:39:44;;;;;;;8.23;5.20;;;;;;;7.24;28.76;100747.72;5558887;32;35154;-81
2022/03/08 14:42:48;;;;;;;8.15;5.47;;;;;;;7.41;28.82;100749.00;5551477;32;34231;-82
2022/03/08 14:45:50;;;;;;;7.30;5.22;;;;;;;7.21;29.64;100737.28;5537807;32;33623;-83
2022/03/08 14:49:13;;;;;;;7.57;5.65;;;;;;;7.32;29.77;100741.34;5542098;32;34012;-82
2022/03/08 14:52:24;;;;;;;9.40;5.72;;;;;;;7.62;29.16;100742.19;5548631;32;34804;-82
2022/03/08 14:55:27;;;;;;;;;;;;;;;7.86;28.49;100729.09;5552326;32;34720;-82
2022/03/08 14:58:30;;;;;;;8.80;5.90;;;;;;;8.09;28.20;100727.47;5542487;32;35017;-82
2022/03/08 15:01:34;;;;;;;9.35;6.30;;;;;;;8.07;28.21;100727.53;5556006;32;34503;-82
2022/03/08 15:04:37;;;;;;;8.77;5.95;;;;;;;7.68;29.01;100727.91;5541509;32;34857;-82
2022/03/08 15:07:40;;;;;;;6.68;4.93;;;;;;;7.60;29.08;100727.28;5545888;32;34104;-82
2022/03/08 15:10:43;;;;;;;8.02;5.32;;;;;;;7.32;28.98;100726.38;5546985;32;34254;-82
2022/03/08 15:13:46;;;;;;;8.40;5.45;;;;;;;7.67;28.20;100727.06;5548050;32;36026;-81
2022/03/08 15:16:49;;;;;;;9.73;5.50;;;;;;;7.78;27.89;100726.72;5543285;32;34618;-83
2022/03/08 15:19:51;;;;;;;9.50;6.00;;;;;;;7.64;28.81;100726.31;5537034;32;34303;-82
2022/03/08 15:22:54;;;;;;;10.18;5.80;;;;;;;7.54;29.36;100723.94;5542820;32;34682;-83
2022/03/08 15:25:57;;;;;;;8.73;6.07;;;;;;;7.45;29.60;100718.97;5545399;32;34656;-83
2022/03/08 15:29:01;;;;;;;8.93;6.28;;;;;;;7.42;29.28;100721.69;5547631;32;33732;-83
2022/03/08 15:32:04;;;;;;;8.88;6.35;;;;;;;7.60;29.36;100724.66;5538125;32;32720;-83
2022/03/08 15:35:08;;;;;;;11.20;6.00;;;;;;;7.65;29.32;100722.75;5541892;32;34003;-83
2022/03/08 15:38:11;;;;;;;10.15;6.15;;;;;;;7.46;29.51;100723.31;5557254;32;34630;-83
2022/03/08 15:41:15;;;;;;;11.05;6.25;;;;;;;7.32;29.73;100720.22;5546247;32;34010;-83
2022/03/08 15:44:19;;;;;;;9.02;5.90;;;;;;;7.28;29.60;100728.25;5541404;32;34357;-83
2022/03/08 15:47:21;;;;;;;9.40;6.05;;;;;;;6.84;30.18;100725.16;5543904;32;34654;-82
2022/03/08 15:50:24;;;;;;;7.87;5.60;;;;;;;6.68;30.44;100720.31;5554701;32;34196;-83
2022/03/08 15:53:27;;;;;;;9.27;5.75;;;;;;;6.51;30.56;100720.78;5542371;32;34532;-82
2022/03/08 15:56:30;;;;;;;8.63;5.60;;;;;;;6.46;30.71;100720.91;5538590;32;34139;-83
2022/03/08 15:59:33;;;;;;;8.18;5.72;;;;;;;6.38;30.68;100722.00;5561173;32;34046;-82
2022/03/08 16:02:36;;;;;;;8.68;5.55;;;;;;;6.34;30.79;100724.72;5577797;32;34615;-83
2022/03/08 16:05:39;;;;;;;8.07;6.00;;;;;;;6.33;30.99;100732.66;5570294;32;34833;-85
2022/03/08 16:08:42;;;;;;;7.28;5.68;;;;;;;6.19;31.14;100728.63;5563720;32;35285;-87
2022/03/08 16:11:45;;;;;;;9.02;5.90;;;;;;;6.13;31.36;100731.41;5555765;32;35212;-87
2022/03/08 16:14:47;;;;;;;9.02;5.90;;;;;;;6.11;31.29;100727.06;5557439;32;34378;-87
2022/03/08 16:17:51;;;;;;;11.38;6.12;;;;;;;6.00;31.58;100732.59;5556275;32;34158;-83
2022/03/08 16:20:59;;;;;;;10.85;7.07;;;;;;;5.91;32.06;100742.47;5555227;32;34266;-83
2022/03/08 16:24:03;;;;;;;10.25;7.03;;;;;;;5.80;32.25;100742.69;5555301;32;34106;-82
2022/03/08 16:27:10;;;;;;;10.50;6.45;;;;;;;5.68;32.83;100745.63;5555618;32;35315;-82
2022/03/08 16:30:13;;;;;;;10.57;6.53;;;;;;;5.75;32.80;100751.63;5554802;32;34220;-82
